createdAt,value
2022-10-20T00:00:22.339Z,20.35
2022-10-20T00:02:51.921Z,25.13
2022-10-20T00:05:22.977Z,26.65
2022-10-20T00:07:52.477Z,25.98
2022-10-20T00:10:21.901Z,22.98
2022-10-20T00:12:51.460Z,23.95
2022-10-20T00:15:20.827Z,28.67
2022-10-20T00:17:50.181Z,25.70
2022-10-20T00:20:19.777Z,23.40
2022-10-20T00:22:50.525Z,23.63
2022-10-20T00:25:19.858Z,28.20
2022-10-20T00:27:49.233Z,21.25
2022-10-20T00:30:21.387Z,27.23
2022-10-20T00:32:53.040Z,32.47
2022-10-20T00:35:22.552Z,29.05
2022-10-20T00:37:53.259Z,32.17
2022-10-20T00:40:22.677Z,35.90
2022-10-20T00:42:52.113Z,30.17
2022-10-20T00:45:23.287Z,32.05
2022-10-20T00:47:55.919Z,33.55
2022-10-20T00:50:31.237Z,27.00
2022-10-20T00:53:03.594Z,31.30
2022-10-20T00:55:37.327Z,28.50
2022-10-20T00:58:07.275Z,33.40
2022-10-20T01:00:38.673Z,26.08
2022-10-20T01:03:13.840Z,32.28
2022-10-20T01:05:43.561Z,27.63
2022-10-20T01:08:14.349Z,32.50
2022-10-20T01:10:55.061Z,34.13
2022-10-20T01:13:36.777Z,31.05
2022-10-20T01:16:17.154Z,28.15
2022-10-20T01:19:02.035Z,37.65
2022-10-20T01:22:20.285Z,31.02
2022-10-20T01:25:18.489Z,33.90
2022-10-20T01:27:54.398Z,32.97
2022-10-20T01:30:25.405Z,38.40
2022-10-20T01:33:19.618Z,34.33
2022-10-20T01:36:01.513Z,34.38
2022-10-20T01:38:41.881Z,35.50
2022-10-20T01:41:19.072Z,39.03
2022-10-20T01:43:51.217Z,38.03
2022-10-20T01:46:25.521Z,34.10
2022-10-20T01:48:56.578Z,38.75
2022-10-20T01:51:26.076Z,42.95
2022-10-20T01:53:55.610Z,41.55
2022-10-20T01:56:38.026Z,40.10
2022-10-20T01:59:33.910Z,40.80
2022-10-20T02:03:07.392Z,46.67
2022-10-20T02:06:03.793Z,41.15
2022-10-20T02:08:45.238Z,40.35
2022-10-20T02:11:24.645Z,38.13
2022-10-20T02:13:58.016Z,36.90
2022-10-20T02:16:32.995Z,39.55
2022-10-20T02:19:04.609Z,39.28
2022-10-20T02:21:34.186Z,45.75
2022-10-20T02:24:10.016Z,41.38
2022-10-20T02:26:41.206Z,37.15
2022-10-20T02:29:16.284Z,39.42
2022-10-20T02:31:48.362Z,40.40
2022-10-20T02:34:17.952Z,41.10
2022-10-20T02:36:47.485Z,33.13
2022-10-20T02:39:16.902Z,35.47
2022-10-20T02:41:46.268Z,34.65
2022-10-20T02:44:15.824Z,32.42
2022-10-20T02:46:46.563Z,36.53
2022-10-20T02:49:16.003Z,34.88
2022-10-20T02:51:45.388Z,34.60
2022-10-20T02:54:14.816Z,32.47
2022-10-20T02:56:44.245Z,35.83
2022-10-20T02:59:16.816Z,34.88
2022-10-20T03:01:48.151Z,32.92
2022-10-20T03:04:17.692Z,33.80
2022-10-20T03:06:47.141Z,36.13
2022-10-20T03:09:16.639Z,32.38
2022-10-20T03:11:46.040Z,31.85
2022-10-20T03:14:15.685Z,34.97
2022-10-20T03:16:45.095Z,28.45
2022-10-20T03:19:16.162Z,35.75
2022-10-20T03:21:46.201Z,34.65
2022-10-20T03:24:15.850Z,32.45
2022-10-20T03:26:45.316Z,33.40
2022-10-20T03:29:14.710Z,35.70
2022-10-20T03:31:44.160Z,33.58
2022-10-20T03:34:14.952Z,29.15
2022-10-20T03:36:44.335Z,31.85
2022-10-20T03:39:13.748Z,36.55
2022-10-20T03:41:43.145Z,37.60
2022-10-20T03:44:12.817Z,35.72
2022-10-20T03:46:42.213Z,32.05
2022-10-20T03:49:11.647Z,34.90
2022-10-20T03:51:42.425Z,34.20
2022-10-20T03:54:11.905Z,30.17
2022-10-20T03:56:41.520Z,30.75
2022-10-20T03:59:12.249Z,34.75
2022-10-20T04:01:46.861Z,34.70
2022-10-20T04:04:16.494Z,37.97
2022-10-20T04:06:47.294Z,35.08
2022-10-20T04:09:16.718Z,37.15
2022-10-20T04:11:46.105Z,35.88
2022-10-20T04:14:15.574Z,31.00
2022-10-20T04:16:44.937Z,29.38
2022-10-20T04:19:15.387Z,34.63
2022-10-20T04:21:46.123Z,32.53
2022-10-20T04:24:15.794Z,32.88
2022-10-20T04:26:45.198Z,36.92
2022-10-20T04:29:14.613Z,38.00
2022-10-20T04:31:48.322Z,40.83
2022-10-20T04:34:18.835Z,41.45
2022-10-20T04:36:49.692Z,38.53
2022-10-20T04:39:19.363Z,32.42
2022-10-20T04:41:48.768Z,39.45
2022-10-20T04:44:18.430Z,33.67
2022-10-20T04:46:48.079Z,39.17
2022-10-20T04:49:17.514Z,34.83
2022-10-20T04:51:46.886Z,38.50
2022-10-20T04:54:17.669Z,34.38
2022-10-20T04:56:47.050Z,33.53
2022-10-20T04:59:16.561Z,36.80
2022-10-20T05:01:46.022Z,34.45
2022-10-20T05:04:20.887Z,36.47
2022-10-20T05:06:51.186Z,39.90
2022-10-20T05:09:21.971Z,39.58
2022-10-20T05:11:51.383Z,33.50
2022-10-20T05:14:21.184Z,33.30
2022-10-20T05:16:50.556Z,37.13
2022-10-20T05:19:20.610Z,35.35
2022-10-20T05:21:50.032Z,38.22
2022-10-20T05:24:22.801Z,37.97
2022-10-20T05:26:55.522Z,41.85
2022-10-20T05:29:25.377Z,37.33
2022-10-20T05:31:54.832Z,32.83
2022-10-20T05:34:25.279Z,38.63
2022-10-20T05:36:55.012Z,32.58
2022-10-20T05:39:25.736Z,39.03
2022-10-20T05:41:55.230Z,35.67
2022-10-20T05:44:24.922Z,37.85
2022-10-20T05:46:56.353Z,36.20
2022-10-20T05:49:25.733Z,36.03
2022-10-20T05:51:55.208Z,39.97
2022-10-20T05:54:26.118Z,37.45
2022-10-20T05:56:55.693Z,39.63
2022-10-20T05:59:25.386Z,35.20
2022-10-20T06:01:54.839Z,32.65
2022-10-20T06:04:25.510Z,38.80
2022-10-20T06:06:55.898Z,37.58
2022-10-20T06:09:26.762Z,36.30
2022-10-20T06:11:59.499Z,34.28
2022-10-20T06:14:29.407Z,37.13
2022-10-20T06:16:59.324Z,37.08
2022-10-20T06:19:28.845Z,36.22
2022-10-20T06:22:02.503Z,35.35
2022-10-20T06:24:36.662Z,37.95
2022-10-20T06:27:06.206Z,33.65
2022-10-20T06:29:35.685Z,43.78
2022-10-20T06:32:05.744Z,37.30
2022-10-20T06:34:35.185Z,38.70
2022-10-20T06:37:04.680Z,37.92
2022-10-20T06:39:34.009Z,36.95
2022-10-20T06:42:09.579Z,41.90
2022-10-20T06:44:47.560Z,42.95
2022-10-20T06:47:16.990Z,35.67
2022-10-20T06:49:46.445Z,40.75
2022-10-20T06:52:15.843Z,35.00
2022-10-20T06:54:45.209Z,38.92
2022-10-20T06:57:15.977Z,46.35
2022-10-20T06:59:45.332Z,43.47
2022-10-20T07:02:14.937Z,38.22
2022-10-20T07:04:44.740Z,42.40
2022-10-20T07:07:14.107Z,42.80
2022-10-20T07:09:43.544Z,41.05
2022-10-20T07:12:12.950Z,37.10
2022-10-20T07:14:43.718Z,37.53
2022-10-20T07:17:13.105Z,39.85
2022-10-20T07:19:42.517Z,41.75
2022-10-20T07:22:11.903Z,38.70
2022-10-20T07:24:41.275Z,40.65
2022-10-20T07:27:10.897Z,41.60
2022-10-20T07:29:40.516Z,40.25
2022-10-20T07:32:11.257Z,40.58
2022-10-20T07:34:40.625Z,43.47
2022-10-20T07:37:10.018Z,35.13
2022-10-20T07:39:39.488Z,40.92
2022-10-20T07:42:08.892Z,41.42
2022-10-20T07:44:38.504Z,39.28
2022-10-20T07:47:07.898Z,38.58
2022-10-20T07:49:43.900Z,35.95
2022-10-20T07:52:16.298Z,38.33
2022-10-20T07:54:46.193Z,34.13
2022-10-20T07:57:15.600Z,32.78
2022-10-20T07:59:45.158Z,38.08
2022-10-20T08:02:15.788Z,32.47
2022-10-20T08:04:46.620Z,40.72
2022-10-20T08:07:16.314Z,38.70
2022-10-20T08:12:20.177Z,36.83
2022-10-20T08:14:49.585Z,40.10
2022-10-20T08:17:19.602Z,40.17
2022-10-20T08:20:02.143Z,41.22
2022-10-20T08:22:31.549Z,41.85
2022-10-20T08:25:01.384Z,38.80
2022-10-20T08:27:31.901Z,41.50
2022-10-20T08:30:22.379Z,35.05
2022-10-20T08:32:52.707Z,33.58
2022-10-20T08:35:24.825Z,38.05
2022-10-20T08:37:54.661Z,42.42
2022-10-20T08:40:29.099Z,33.45
2022-10-20T08:42:59.024Z,33.40
2022-10-20T08:45:32.662Z,32.10
2022-10-20T08:48:04.773Z,35.38
2022-10-20T08:50:35.988Z,36.35
2022-10-20T08:53:05.884Z,30.30
2022-10-20T08:55:35.536Z,36.38
2022-10-20T08:58:08.901Z,26.30
2022-10-20T09:03:18.623Z,28.60
2022-10-20T09:05:56.654Z,24.70
2022-10-20T09:08:30.765Z,30.02
2022-10-20T09:11:00.212Z,32.72
2022-10-20T09:13:33.794Z,21.70
2022-10-20T09:16:08.537Z,26.85
2022-10-20T09:18:38.101Z,27.05
2022-10-20T09:21:15.957Z,28.67
2022-10-20T09:26:37.534Z,27.60
2022-10-20T09:29:20.588Z,30.10
2022-10-20T09:31:53.812Z,28.60
2022-10-20T09:34:35.097Z,28.92
2022-10-20T09:37:14.711Z,29.52
2022-10-20T09:39:55.814Z,27.33
2022-10-20T09:42:32.550Z,31.27
2022-10-20T09:45:07.664Z,27.40
2022-10-20T09:47:37.096Z,29.75
2022-10-20T09:50:14.560Z,28.65
2022-10-20T09:52:48.420Z,26.63
2022-10-20T09:55:31.885Z,25.73
2022-10-20T09:58:04.243Z,24.02
2022-10-20T10:00:38.316Z,28.27
2022-10-20T10:03:21.256Z,22.23
2022-10-20T10:05:53.195Z,22.50
2022-10-20T10:08:27.555Z,24.67
2022-10-20T10:11:05.095Z,22.75
2022-10-20T10:13:43.198Z,24.48
2022-10-20T10:16:16.124Z,21.52
2022-10-20T10:18:49.458Z,24.58
2022-10-20T10:21:20.163Z,18.92
2022-10-20T10:23:57.273Z,22.23
2022-10-20T10:26:53.661Z,21.70
2022-10-20T10:29:29.195Z,19.42
2022-10-20T10:32:02.709Z,20.50
2022-10-20T10:35:16.577Z,21.83
2022-10-20T10:37:47.317Z,20.20
2022-10-20T10:40:21.969Z,20.35
2022-10-20T10:43:30.609Z,17.30
2022-10-20T10:46:07.474Z,16.55
2022-10-20T10:49:11.629Z,21.52
2022-10-20T10:51:57.996Z,17.98
2022-10-20T10:54:56.125Z,19.65
2022-10-20T10:57:38.179Z,17.15
2022-10-20T11:00:21.329Z,22.73
2022-10-20T11:03:43.741Z,17.23
2022-10-20T11:06:23.315Z,16.95
2022-10-20T11:09:18.404Z,16.75
2022-10-20T11:12:43.584Z,16.88
2022-10-20T11:15:39.589Z,17.08
2022-10-20T11:18:26.612Z,16.60
2022-10-20T11:21:13.878Z,15.32
2022-10-20T11:24:21.426Z,17.52
2022-10-20T11:27:05.468Z,20.08
2022-10-20T11:29:40.542Z,18.13
2022-10-20T11:32:27.520Z,15.57
2022-10-20T11:35:07.275Z,20.63
2022-10-20T11:37:45.924Z,15.80
2022-10-20T11:40:25.162Z,16.20
2022-10-20T11:43:10.336Z,16.23
2022-10-20T11:45:50.372Z,16.33
2022-10-20T11:48:30.449Z,18.33
2022-10-20T11:51:44.877Z,21.40
2022-10-20T11:54:55.187Z,15.20
2022-10-20T11:57:44.837Z,17.67
2022-10-20T12:00:36.769Z,16.42
2022-10-20T12:03:59.414Z,15.70
2022-10-20T12:07:23.445Z,15.73
2022-10-20T12:10:14.913Z,16.73
2022-10-20T12:12:59.684Z,14.18
2022-10-20T12:15:29.434Z,15.18
2022-10-20T12:18:06.023Z,13.43
2022-10-20T12:21:06.008Z,14.55
2022-10-20T12:24:04.775Z,14.82
2022-10-20T12:27:18.670Z,12.90
2022-10-20T12:30:02.469Z,11.02
2022-10-20T12:33:20.032Z,12.18
2022-10-20T12:36:33.659Z,12.88
2022-10-20T12:39:21.416Z,12.10
2022-10-20T12:42:01.359Z,12.57
2022-10-20T12:44:42.724Z,14.77
2022-10-20T12:47:21.434Z,11.30
2022-10-20T12:49:56.919Z,9.05
2022-10-20T12:52:32.474Z,14.98
2022-10-20T12:55:09.254Z,11.52
2022-10-20T12:57:42.319Z,15.10
2022-10-20T13:01:08.737Z,11.95
2022-10-20T13:03:46.801Z,12.55
2022-10-20T13:06:44.401Z,15.52
2022-10-20T13:09:25.549Z,10.27
2022-10-20T13:12:05.944Z,14.30
2022-10-20T13:14:53.671Z,12.07
2022-10-20T13:17:49.772Z,13.30
2022-10-20T13:20:39.610Z,14.35
2022-10-20T13:23:15.295Z,12.10
2022-10-20T13:25:50.541Z,11.63
2022-10-20T13:28:25.910Z,13.00
2022-10-20T13:31:14.959Z,13.25
2022-10-20T13:34:04.376Z,13.38
2022-10-20T13:37:02.731Z,12.30
2022-10-20T13:39:46.563Z,15.27
2022-10-20T13:42:41.881Z,11.88
2022-10-20T13:45:25.901Z,14.75
2022-10-20T13:48:14.535Z,14.88
2022-10-20T13:50:47.856Z,13.18
2022-10-20T13:53:25.862Z,11.40
2022-10-20T13:56:03.573Z,12.75
2022-10-20T13:58:35.978Z,15.25
2022-10-20T14:01:11.780Z,14.10
2022-10-20T14:03:45.928Z,25.45
2022-10-20T14:06:32.663Z,11.73
2022-10-20T14:09:16.153Z,13.73
2022-10-20T14:11:48.369Z,10.57
2022-10-20T14:14:25.394Z,12.10
2022-10-20T14:17:01.154Z,13.80
2022-10-20T14:19:33.487Z,14.98
2022-10-20T14:22:19.138Z,9.95
2022-10-20T14:24:52.802Z,17.00
2022-10-20T14:27:28.091Z,13.90
2022-10-20T14:29:59.851Z,15.90
2022-10-20T14:32:32.138Z,12.52
2022-10-20T14:35:12.496Z,14.15
2022-10-20T14:37:53.313Z,14.52
2022-10-20T14:40:26.898Z,13.45
2022-10-20T14:43:06.755Z,11.48
2022-10-20T14:45:37.502Z,14.50
2022-10-20T14:48:14.089Z,12.70
2022-10-20T14:50:44.040Z,12.10
2022-10-20T14:53:32.356Z,10.50
2022-10-20T14:56:04.232Z,13.77
2022-10-20T14:59:00.330Z,9.73
2022-10-20T15:01:32.691Z,11.77
2022-10-20T15:04:17.278Z,10.20
2022-10-20T15:06:46.833Z,11.77
2022-10-20T15:09:25.339Z,13.30
2022-10-20T15:11:55.158Z,12.63
2022-10-20T15:14:24.808Z,13.68
2022-10-20T15:16:55.807Z,11.32
2022-10-20T15:19:36.061Z,11.90
2022-10-20T15:24:49.860Z,11.13
2022-10-20T15:27:19.773Z,11.02
2022-10-20T15:29:52.452Z,15.10
2022-10-20T15:32:23.342Z,12.48
2022-10-20T15:34:52.802Z,9.98
2022-10-20T15:37:22.286Z,16.63
2022-10-20T15:39:51.716Z,10.85
2022-10-20T15:42:21.227Z,12.88
2022-10-20T15:44:50.613Z,12.48
2022-10-20T15:48:23.918Z,14.05
2022-10-20T15:50:57.886Z,13.37
2022-10-20T15:53:27.794Z,11.48
2022-10-20T15:55:58.524Z,13.48
2022-10-20T15:58:27.958Z,11.02
2022-10-20T16:00:57.423Z,11.23
2022-10-20T16:03:28.210Z,13.20
2022-10-20T16:05:57.569Z,15.77
2022-10-20T16:08:26.962Z,16.23
2022-10-20T16:10:56.793Z,15.13
2022-10-20T16:13:26.314Z,12.07
2022-10-20T16:15:55.847Z,14.63
2022-10-20T16:18:25.284Z,20.30
2022-10-20T16:20:58.760Z,14.88
2022-10-20T16:23:28.782Z,13.30
2022-10-20T16:25:58.306Z,12.05
2022-10-20T16:28:27.741Z,12.77
2022-10-20T16:31:07.997Z,13.93
2022-10-20T16:33:37.703Z,11.88
2022-10-20T16:36:12.322Z,16.30
2022-10-20T16:38:42.196Z,13.35
2022-10-20T16:41:15.573Z,14.13
2022-10-20T16:43:47.141Z,13.50
2022-10-20T16:46:17.355Z,13.07
2022-10-20T16:48:48.331Z,15.40
2022-10-20T16:51:19.520Z,15.88
2022-10-20T16:53:49.708Z,13.80
2022-10-20T16:56:20.960Z,12.98
2022-10-20T16:58:50.996Z,18.23
2022-10-20T17:01:22.924Z,10.45
2022-10-20T17:03:54.689Z,11.63
2022-10-20T17:06:27.665Z,15.10
2022-10-20T17:08:59.790Z,11.95
2022-10-20T17:11:32.970Z,12.88
2022-10-20T17:14:02.724Z,14.98
2022-10-20T17:16:35.100Z,13.05
2022-10-20T17:19:04.779Z,12.85
2022-10-20T17:21:36.120Z,14.60
2022-10-20T17:24:09.485Z,13.25
2022-10-20T17:26:39.676Z,14.80
2022-10-20T17:29:09.583Z,16.60
2022-10-20T17:31:40.128Z,13.35
2022-10-20T17:34:10.894Z,14.10
2022-10-20T17:36:41.909Z,18.58
2022-10-20T17:39:17.341Z,16.80
2022-10-20T17:41:48.337Z,16.00
2022-10-20T17:44:17.819Z,12.82
2022-10-20T17:46:47.225Z,11.30
2022-10-20T17:49:16.623Z,17.00
2022-10-20T17:51:47.513Z,26.35
2022-10-20T17:54:16.906Z,24.52
2022-10-20T17:56:47.595Z,21.88
2022-10-20T17:59:17.039Z,16.45
2022-10-20T18:01:46.503Z,16.65
2022-10-20T18:04:18.349Z,13.85
2022-10-20T18:06:49.314Z,14.32
2022-10-20T18:09:20.537Z,17.38
2022-10-20T18:11:53.245Z,12.88
2022-10-20T18:14:22.655Z,13.30
2022-10-20T18:16:52.076Z,13.02
2022-10-20T18:19:21.506Z,14.23
2022-10-20T18:21:52.573Z,13.63
2022-10-20T18:24:21.996Z,10.93
2022-10-20T18:26:51.383Z,12.02
2022-10-20T18:29:20.779Z,18.00
2022-10-20T18:31:51.299Z,10.45
2022-10-20T18:34:21.990Z,14.15
2022-10-20T18:36:55.862Z,11.15
2022-10-20T18:39:25.349Z,12.70
2022-10-20T18:41:55.133Z,20.38
2022-10-20T18:44:25.190Z,14.55
2022-10-20T18:46:58.338Z,10.40
2022-10-20T18:49:28.104Z,11.25
2022-10-20T18:51:59.509Z,12.70
2022-10-20T18:54:28.918Z,12.75
2022-10-20T18:56:58.353Z,16.58
2022-10-20T18:59:28.099Z,14.80
2022-10-20T19:01:57.511Z,17.08
2022-10-20T19:04:26.945Z,12.40
2022-10-20T19:06:57.678Z,13.32
2022-10-20T19:09:27.214Z,13.02
2022-10-20T19:11:57.539Z,13.93
2022-10-20T19:14:28.309Z,14.90
2022-10-20T19:16:57.685Z,12.98
2022-10-20T19:19:27.103Z,15.40
2022-10-20T19:21:57.963Z,19.25
2022-10-20T19:24:27.309Z,21.42
2022-10-20T19:29:48.504Z,19.67
2022-10-20T19:32:17.917Z,17.92
2022-10-20T19:34:47.323Z,20.17
2022-10-20T19:37:18.303Z,23.05
2022-10-20T19:39:47.761Z,21.90
2022-10-20T19:42:17.161Z,21.92
2022-10-20T19:44:46.675Z,23.23
2022-10-20T19:47:16.812Z,23.08
2022-10-20T19:49:46.721Z,21.98
2022-10-20T19:52:17.704Z,16.60
2022-10-20T19:54:47.207Z,16.83
2022-10-20T19:57:16.612Z,16.13
2022-10-20T19:59:46.116Z,14.07
2022-10-20T20:02:15.562Z,16.63
2022-10-20T20:04:45.408Z,17.88
2022-10-20T20:07:15.053Z,17.70
2022-10-20T20:09:49.416Z,15.65
2022-10-20T20:12:21.084Z,16.35
2022-10-20T20:14:50.539Z,16.58
2022-10-20T20:17:20.037Z,14.68
2022-10-20T20:19:49.418Z,15.07
2022-10-20T20:22:18.953Z,19.33
2022-10-20T20:24:49.762Z,16.17
2022-10-20T20:27:19.189Z,16.38
2022-10-20T20:29:48.572Z,14.38
2022-10-20T20:32:18.134Z,15.60
2022-10-20T20:34:47.538Z,15.07
2022-10-20T20:37:16.949Z,13.55
2022-10-20T20:39:46.292Z,16.40
2022-10-20T20:42:17.249Z,14.70
2022-10-20T20:44:46.633Z,19.85
2022-10-20T20:47:15.990Z,17.70
2022-10-20T20:49:45.363Z,16.77
2022-10-20T20:52:14.755Z,17.45
2022-10-20T20:54:44.151Z,19.02
2022-10-20T20:57:13.573Z,13.57
2022-10-20T20:59:44.542Z,13.65
2022-10-20T21:02:13.946Z,11.40
2022-10-20T21:04:43.436Z,14.77
2022-10-20T21:07:13.481Z,15.23
2022-10-20T21:09:42.866Z,15.43
2022-10-20T21:14:49.275Z,14.73
2022-10-20T21:17:18.817Z,15.65
2022-10-20T21:19:48.394Z,13.20
2022-10-20T21:22:18.041Z,12.95
2022-10-20T21:24:47.467Z,19.00
2022-10-20T21:27:16.853Z,15.82
2022-10-20T21:29:46.490Z,13.63
2022-10-20T21:32:18.400Z,14.52
2022-10-20T21:34:48.141Z,13.35
2022-10-20T21:37:17.589Z,15.85
2022-10-20T21:39:46.978Z,15.70
2022-10-20T21:42:16.597Z,17.48
2022-10-20T21:44:46.160Z,14.75
2022-10-20T21:47:16.925Z,13.18
2022-10-20T21:49:46.337Z,16.88
2022-10-20T21:52:15.707Z,13.75
2022-10-20T21:54:45.188Z,18.40
2022-10-20T21:57:16.333Z,14.48
2022-10-20T21:59:50.334Z,15.63
2022-10-20T22:02:21.093Z,12.98
2022-10-20T22:04:50.538Z,13.13
2022-10-20T22:07:19.966Z,13.73
2022-10-20T22:09:49.507Z,12.30
2022-10-20T22:12:19.038Z,17.02
2022-10-20T22:14:48.442Z,15.00
2022-10-20T22:17:17.859Z,11.65
2022-10-20T22:19:50.231Z,11.95
2022-10-20T22:22:19.656Z,14.02
2022-10-20T22:24:49.660Z,12.40
2022-10-20T22:27:31.491Z,14.23
2022-10-20T22:30:24.642Z,14.18
2022-10-20T22:32:54.406Z,15.38
2022-10-20T22:35:25.428Z,15.60
2022-10-20T22:37:55.344Z,15.18
2022-10-20T22:40:24.820Z,17.92
2022-10-20T22:42:54.372Z,14.68
2022-10-20T22:45:23.772Z,17.75
2022-10-20T22:47:53.276Z,15.02
2022-10-20T22:50:24.184Z,13.45
2022-10-20T22:52:53.559Z,14.32
2022-10-20T22:55:23.025Z,14.18
2022-10-20T22:57:53.574Z,13.32
2022-10-20T23:00:22.989Z,15.65
2022-10-20T23:02:52.394Z,16.48
2022-10-20T23:05:21.806Z,15.70
2022-10-20T23:07:52.580Z,10.73
2022-10-20T23:10:22.360Z,15.90
2022-10-20T23:12:51.763Z,15.35
2022-10-20T23:15:21.281Z,15.23
2022-10-20T23:17:50.840Z,16.55
2022-10-20T23:20:20.245Z,13.63
2022-10-20T23:22:49.686Z,12.57
2022-10-20T23:25:27.058Z,14.98
2022-10-20T23:27:56.553Z,18.08
2022-10-20T23:30:25.945Z,13.05
2022-10-20T23:32:55.406Z,12.15
2022-10-20T23:35:24.785Z,13.15
2022-10-20T23:37:54.157Z,16.45
2022-10-20T23:40:24.907Z,12.85
2022-10-20T23:42:54.357Z,10.23
2022-10-20T23:45:23.744Z,13.48
2022-10-20T23:47:53.271Z,14.02
2022-10-20T23:50:24.375Z,12.55
2022-10-20T23:52:54.450Z,10.18
2022-10-20T23:55:25.270Z,16.95
2022-10-20T23:57:54.801Z,12.05
